ENSG/SOG METAR and TAF weather

Enter ICAO airport designator
Station Type Date Time Source
ENSG METAR 2021/07/24 08:20 UTC NOAA

ENSG 240820Z 07006KT CAVOK 20/11 Q1017 RMK WIND 3806FT VRB03KT


Station Type Date Time Source
ENSG Decoded METAR 2021/07/24 08:20 UTC NOAA

Sogndal / Haukasen, Norway (ENSG) 61-09N 007-08E 497M
Jul 24, 2021 - 04:20 AM EDT / 2021.07.24 0820 UTC
Wind: from the ENE (070 degrees) at 7 MPH (6 KT):0
Visibility: greater than 7 mile(s):0
Temperature: 68 F (20 C)
Dew Point: 51 F (11 C)
Relative Humidity: 56%
Pressure (altimeter): 30.03 in. Hg (1017 hPa)
ob: ENSG 240820Z 07006KT CAVOK 20/11 Q1017 RMK WIND 3806FT VRB03KT
cycle: 8

Station Type Date Time Source
ENSG TAF UTC NOAA

Error!

Example: see airport list